Time;durP1;ratioP1;P1;durP2;ratioP2;P2;SDS_P1;SDS_P2;PMS_P1;PMS_P2;Temp;Humidity;BMP_temperature;BMP_pressure;BME280_temperature;BME280_humidity;BME280_pressure;Samples;Min_cycle;Max_cycle;Signal;HPM_P1;HPM_P2
2022/01/15 00:02:08;;;;;;;2.20;1.40;;;;;;;11.40;29.81;96009.09;5075226;28;20051;-70
2022/01/15 00:04:34;;;;;;;2.60;1.20;;;;;;;11.29;29.29;96008.19;5074727;28;20036;-71
2022/01/15 00:07:00;;;;;;;2.00;1.10;;;;;;;11.28;28.96;96014.56;5074556;28;20035;-71
2022/01/15 00:09:26;;;;;;;0.97;0.80;;;;;;;11.24;29.49;96020.63;5091734;28;20453;-71
2022/01/15 00:11:52;;;;;;;1.27;1.00;;;;;;;11.18;30.20;96029.56;5073003;28;20397;-71
2022/01/15 00:14:26;;;;;;;4.53;1.10;;;;;;;11.20;30.28;96049.53;5089913;28;20079;-72
2022/01/15 00:17:14;;;;;;;1.23;1.03;;;;;;;11.37;30.43;96049.44;5074568;28;20048;-71
2022/01/15 00:19:43;;;;;;;1.80;1.10;;;;;;;11.33;31.34;96035.84;5077868;28;20040;-71
2022/01/15 00:22:14;;;;;;;2.70;1.30;;;;;;;11.76;31.22;96046.41;5091673;28;20488;-69
2022/01/15 00:24:40;;;;;;;2.90;1.20;;;;;;;11.37;31.17;96036.97;5091312;28;20044;-68
2022/01/15 00:27:06;;;;;;;5.37;1.73;;;;;;;11.54;31.83;96044.84;5091080;28;20411;-69
2022/01/15 00:29:32;;;;;;;1.40;1.30;;;;;;;11.36;31.42;96045.19;5057565;28;20040;-70
2022/01/15 00:31:59;;;;;;;2.30;1.30;;;;;;;11.57;31.01;96045.16;5106936;28;20040;-69
2022/01/15 00:34:27;;;;;;;5.37;1.70;;;;;;;11.29;30.64;96025.97;5073536;28;20044;-70
2022/01/15 00:36:53;;;;;;;2.67;1.10;;;;;;;10.93;31.11;96040.69;5057371;28;20036;-70
2022/01/15 00:39:19;;;;;;;3.70;1.30;;;;;;;10.78;30.70;96032.56;5057330;28;20054;-69
2022/01/15 00:41:45;;;;;;;2.73;1.77;;;;;;;10.87;31.10;96039.03;5073501;28;20089;-70
2022/01/15 00:44:10;;;;;;;3.23;1.50;;;;;;;10.88;30.94;96048.63;5090354;28;20038;-69
2022/01/15 00:46:36;;;;;;;4.20;1.10;;;;;;;10.95;30.33;96053.72;5091833;28;20052;-70
2022/01/15 00:49:02;;;;;;;3.60;1.07;;;;;;;11.00;30.17;96044.00;5090209;28;20043;-70
2022/01/15 00:51:28;;;;;;;1.53;1.00;;;;;;;10.84;29.94;96059.97;5091750;28;20105;-69
2022/01/15 00:53:54;;;;;;;5.57;1.30;;;;;;;10.63;28.86;96037.69;5039987;28;20040;-70
2022/01/15 00:56:20;;;;;;;1.40;1.20;;;;;;;10.80;29.08;96050.88;5040334;28;20487;-68
2022/01/15 00:58:46;;;;;;;2.30;0.80;;;;;;;10.86;29.95;96056.03;5072678;28;20048;-69
2022/01/15 01:01:12;;;;;;;3.10;1.10;;;;;;;10.96;30.16;96061.44;5089659;28;20055;-70
2022/01/15 01:03:38;;;;;;;3.50;1.00;;;;;;;10.92;29.32;96063.00;5089581;28;20130;-70
2022/01/15 01:06:04;;;;;;;4.30;1.10;;;;;;;10.87;30.32;96067.44;5039645;28;20036;-70
2022/01/15 01:08:29;;;;;;;3.53;1.13;;;;;;;10.88;29.91;96074.34;5073059;28;20068;-70
2022/01/15 01:10:58;;;;;;;1.80;1.23;;;;;;;10.91;29.93;96068.56;5089645;28;20052;-71
2022/01/15 01:24:08;;;;;;;2.60;1.20;;;;;;;11.00;28.81;96088.31;5089316;28;20051;-71
2022/01/15 01:26:44;;;;;;;3.90;1.57;;;;;;;11.03;29.31;96088.63;5072568;28;20048;-70
2022/01/15 01:32:13;;;;;;;5.40;1.10;;;;;;;11.26;28.89;96092.88;5089381;28;20523;-70
2022/01/15 01:34:43;;;;;;;2.93;1.13;;;;;;;11.02;29.23;96083.56;5089350;28;20487;-70
2022/01/15 01:37:20;;;;;;;1.20;1.00;;;;;;;11.15;30.17;96104.41;5090576;28;20045;-70
2022/01/15 01:39:51;;;;;;;4.47;1.07;;;;;;;11.04;30.61;96102.72;5057362;28;20428;-69
2022/01/15 01:45:17;;;;;;;3.40;1.03;;;;;;;12.01;29.41;96108.84;5072608;28;20091;-69
2022/01/15 01:47:44;;;;;;;5.73;1.60;;;;;;;11.45;30.37;96116.22;5066358;28;20048;-69
2022/01/15 01:50:20;;;;;;;1.37;0.93;;;;;;;11.81;30.10;96109.44;5090087;28;20480;-69
2022/01/15 01:52:49;;;;;;;3.40;1.17;;;;;;;11.58;30.53;96112.38;5088979;28;20054;-69
2022/01/15 01:55:17;;;;;;;1.10;1.00;;;;;;;11.56;30.49;96119.81;5088819;28;20075;-69
2022/01/15 01:57:43;;;;;;;2.50;1.07;;;;;;;11.32;30.98;96098.00;5088955;28;20113;-70
2022/01/15 02:00:12;;;;;;;2.83;1.00;;;;;;;11.56;31.10;96127.78;5089196;28;20044;-70
2022/01/15 02:02:46;;;;;;;2.03;1.10;;;;;;;11.23;30.40;96125.25;5074728;28;20508;-70
2022/01/15 02:05:13;;;;;;;1.83;1.20;;;;;;;10.87;30.54;96032.94;5089242;28;20067;-70
2022/01/15 02:07:43;;;;;;;1.33;1.00;;;;;;;11.50;30.49;96132.22;5072334;28;20044;-70
2022/01/15 02:10:12;;;;;;;5.93;1.00;;;;;;;11.44;30.44;96132.41;5072609;28;20040;-72
2022/01/15 02:12:39;;;;;;;0.83;0.83;;;;;;;11.26;29.73;96122.09;5072876;28;20419;-70
2022/01/15 02:15:07;;;;;;;3.00;1.30;;;;;;;11.22;29.75;96132.44;5072224;28;20083;-69
2022/01/15 02:17:33;;;;;;;1.43;0.97;;;;;;;10.86;29.27;96137.50;5089200;28;20508;-69
2022/01/15 02:25:17;;;;;;;2.43;1.20;;;;;;;10.98;30.66;96127.59;5088976;28;20047;-69
2022/01/15 02:27:44;;;;;;;1.23;0.77;;;;;;;10.98;28.71;96135.56;5090235;28;20130;-70
2022/01/15 02:30:10;;;;;;;1.43;1.10;;;;;;;11.21;29.63;96144.06;5072453;28;20051;-70
2022/01/15 02:32:36;;;;;;;4.33;1.50;;;;;;;10.78;28.88;96109.53;5055514;28;20040;-70
2022/01/15 02:35:04;;;;;;;1.13;1.03;;;;;;;11.62;29.59;96140.06;5088883;28;20428;-70
2022/01/15 02:37:30;;;;;;;2.47;1.20;;;;;;;11.09;29.46;96134.63;5055432;28;20051;-71
2022/01/15 02:39:57;;;;;;;3.60;1.40;;;;;;;11.35;29.82;96141.84;5072544;28;20411;-70
2022/01/15 02:42:26;;;;;;;1.83;1.13;;;;;;;11.13;29.89;96117.16;5089242;28;20119;-71
2022/01/15 02:44:59;;;;;;;3.73;1.60;;;;;;;11.24;30.75;96162.19;5088954;28;20046;-69
2022/01/15 02:50:09;;;;;;;4.80;1.30;;;;;;;11.77;30.39;96157.00;5089022;28;20045;-70
2022/01/15 02:52:35;;;;;;;3.73;1.20;;;;;;;11.54;30.93;96156.44;5072107;28;20067;-70
2022/01/15 02:55:01;;;;;;;3.30;1.23;;;;;;;11.13;30.78;96122.47;5091431;28;20047;-71
2022/01/15 02:57:29;;;;;;;2.50;1.60;;;;;;;11.43;31.11;96163.50;5076591;28;20040;-70
2022/01/15 02:59:54;;;;;;;1.20;1.10;;;;;;;11.54;31.22;96159.09;5092740;28;20058;-70
2022/01/15 03:02:21;;;;;;;2.03;1.40;;;;;;;11.52;31.70;96161.19;5092430;28;20036;-70
2022/01/15 03:04:48;;;;;;;3.90;1.40;;;;;;;11.93;31.30;96161.41;5092374;28;20492;-70
2022/01/15 03:07:14;;;;;;;2.90;1.67;;;;;;;11.36;31.42;96156.75;5093830;28;20040;-70
2022/01/15 03:09:40;;;;;;;5.13;1.60;;;;;;;11.33;31.12;96178.50;5075549;28;20587;-73
2022/01/15 03:12:07;;;;;;;4.67;1.60;;;;;;;11.60;31.64;96176.69;5092038;28;20040;-71
2022/01/15 03:14:33;;;;;;;4.07;1.40;;;;;;;11.49;31.48;96172.31;5092278;28;20051;-70
2022/01/15 03:16:59;;;;;;;5.70;1.27;;;;;;;11.17;31.87;96180.16;5091980;28;20471;-72
2022/01/15 03:19:24;;;;;;;1.87;1.50;;;;;;;11.05;32.20;96147.59;5073554;28;20420;-70
2022/01/15 03:21:50;;;;;;;3.43;1.40;;;;;;;11.23;31.69;96181.81;5090949;28;20146;-70
2022/01/15 03:24:16;;;;;;;2.13;1.50;;;;;;;11.27;31.32;96179.50;5074484;28;20062;-70
2022/01/15 03:26:42;;;;;;;1.73;1.20;;;;;;;11.34;31.34;96180.09;5074323;28;20036;-68
2022/01/15 03:29:07;;;;;;;1.70;1.30;;;;;;;11.36;31.41;96181.44;5075736;28;20399;-70
2022/01/15 03:31:33;;;;;;;3.43;1.30;;;;;;;11.36;31.47;96180.66;5092617;28;20484;-70
2022/01/15 03:33:59;;;;;;;2.30;1.40;;;;;;;11.31;30.75;96177.94;5093794;28;20048;-69
2022/01/15 03:36:25;;;;;;;1.30;1.20;;;;;;;11.40;31.29;96176.44;5058389;28;20068;-70
2022/01/15 03:38:50;;;;;;;1.97;1.40;;;;;;;11.37;31.55;96183.06;5057839;28;20051;-69
2022/01/15 03:41:16;;;;;;;3.50;1.70;;;;;;;11.30;31.59;96182.44;5058298;28;20548;-70
2022/01/15 03:43:42;;;;;;;1.53;1.13;;;;;;;11.32;30.80;96198.13;5057857;28;20039;-69
2022/01/15 03:46:08;;;;;;;2.43;1.40;;;;;;;11.44;31.20;96190.88;5093037;28;20154;-70
2022/01/15 03:48:33;;;;;;;2.90;1.40;;;;;;;11.44;31.42;96188.22;5092925;28;20050;-70
2022/01/15 03:50:59;;;;;;;4.17;1.53;;;;;;;11.13;31.42;96192.28;5091906;28;20115;-68
2022/01/15 03:53:25;;;;;;;4.87;1.30;;;;;;;11.47;31.75;96198.34;5092766;28;20533;-69
2022/01/15 03:55:51;;;;;;;3.67;1.40;;;;;;;11.57;31.50;96195.81;5091357;28;20135;-69
2022/01/15 03:58:18;;;;;;;2.67;1.40;;;;;;;11.65;31.27;96195.41;5074702;28;20067;-69
2022/01/15 04:00:44;;;;;;;2.33;1.23;;;;;;;11.49;31.52;96194.38;5091432;28;20035;-70
2022/01/15 04:03:10;;;;;;;2.90;1.40;;;;;;;11.27;31.02;96167.00;5041598;28;20058;-69
2022/01/15 04:05:35;;;;;;;4.70;1.30;;;;;;;11.24;31.17;96195.91;5091787;28;20044;-69
2022/01/15 04:08:01;;;;;;;3.07;1.37;;;;;;;11.42;31.46;96207.03;5058468;28;20044;-69
2022/01/15 04:10:27;;;;;;;2.80;1.40;;;;;;;11.41;31.74;96208.09;5058573;28;20050;-68
2022/01/15 04:12:53;;;;;;;3.33;1.40;;;;;;;11.39;31.76;96193.44;5074681;28;20083;-69
2022/01/15 04:15:20;;;;;;;3.67;1.27;;;;;;;11.60;31.53;96209.41;5075145;28;20090;-71
2022/01/15 04:17:48;;;;;;;2.40;1.57;;;;;;;11.56;31.59;96173.72;5091763;28;20063;-71
2022/01/15 04:20:20;;;;;;;1.63;1.33;;;;;;;11.46;31.76;96178.94;5074442;28;20050;-72
2022/01/15 04:22:46;;;;;;;2.70;1.40;;;;;;;11.61;31.10;96212.84;5074801;28;20047;-72
2022/01/15 04:25:12;;;;;;;2.40;1.30;;;;;;;11.41;31.14;96216.06;5057261;28;20132;-71
2022/01/15 04:27:38;;;;;;;2.47;1.27;;;;;;;11.54;31.61;96226.34;5057393;28;20051;-70
2022/01/15 04:30:06;;;;;;;2.53;1.40;;;;;;;11.82;31.47;96233.34;5074328;28;20141;-74
2022/01/15 04:32:32;;;;;;;2.63;1.20;;;;;;;11.43;31.23;96231.75;5092349;28;20116;-71
2022/01/15 04:34:59;;;;;;;1.57;1.10;;;;;;;11.71;31.69;96232.44;5073631;28;20495;-70
2022/01/15 04:37:32;;;;;;;2.60;1.30;;;;;;;11.45;31.84;96234.97;5082707;28;20085;-70
2022/01/15 04:39:58;;;;;;;2.37;1.13;;;;;;;11.38;31.85;96240.47;5077054;28;20058;-70
2022/01/15 04:42:25;;;;;;;1.77;1.40;;;;;;;11.37;31.54;96241.53;5059033;28;20118;-70
2022/01/15 04:44:51;;;;;;;3.53;1.17;;;;;;;11.41;31.18;96247.13;5109909;28;20077;-70
2022/01/15 04:47:17;;;;;;;1.50;1.30;;;;;;;11.44;31.83;96249.31;5109479;28;20070;-70
2022/01/15 04:49:43;;;;;;;1.60;1.30;;;;;;;11.47;31.42;96264.78;5087550;28;20199;-70
2022/01/15 04:52:09;;;;;;;1.40;1.30;;;;;;;11.13;31.25;96220.72;5109707;28;20043;-69
2022/01/15 04:54:36;;;;;;;2.10;1.30;;;;;;;11.33;31.42;96252.88;5092076;28;20047;-69
2022/01/15 04:57:02;;;;;;;3.00;1.43;;;;;;;11.43;31.28;96266.28;5092590;28;20036;-69
2022/01/15 04:59:28;;;;;;;2.87;1.43;;;;;;;11.36;31.47;96255.03;5076700;28;20039;-68
2022/01/15 05:01:53;;;;;;;1.57;1.30;;;;;;;11.32;31.30;96243.28;5093489;28;20039;-68
2022/01/15 05:04:19;;;;;;;3.60;1.63;;;;;;;11.20;31.56;96237.28;5076941;28;20039;-67
2022/01/15 05:06:45;;;;;;;2.47;1.60;;;;;;;11.26;31.00;96257.53;5076565;28;20059;-68
2022/01/15 05:09:11;;;;;;;1.70;1.50;;;;;;;11.36;30.71;96271.75;5110359;28;20040;-67
2022/01/15 05:11:48;;;;;;;1.77;1.30;;;;;;;11.59;30.96;96284.06;5076619;28;20040;-66
2022/01/15 05:14:16;;;;;;;2.60;1.37;;;;;;;11.74;31.47;96292.25;5093125;28;20114;-65
2022/01/15 05:16:43;;;;;;;6.13;1.50;;;;;;;11.40;31.06;96290.69;5111115;28;20047;-66
2022/01/15 05:19:09;;;;;;;1.87;1.40;;;;;;;11.28;30.40;96298.75;5109940;28;20039;-66
2022/01/15 05:21:35;;;;;;;1.37;1.23;;;;;;;11.18;30.87;96303.09;5110388;28;20066;-67
2022/01/15 05:24:00;;;;;;;4.03;1.30;;;;;;;11.28;31.27;96305.91;5076132;28;20039;-67
2022/01/15 05:26:26;;;;;;;1.63;1.30;;;;;;;11.11;31.23;96319.22;5093360;28;20573;-66
2022/01/15 05:28:52;;;;;;;1.57;1.30;;;;;;;11.20;31.08;96317.75;5109624;28;20118;-67
2022/01/15 05:31:18;;;;;;;1.40;1.30;;;;;;;11.22;31.18;96322.84;5086765;28;20159;-66
2022/01/15 05:33:43;;;;;;;2.03;1.40;;;;;;;11.15;31.08;96330.13;5084368;28;20494;-65
2022/01/15 05:36:09;;;;;;;1.90;1.33;;;;;;;11.34;31.21;96348.25;5090042;28;20057;-66
2022/01/15 05:38:35;;;;;;;1.90;1.50;;;;;;;11.32;31.16;96344.22;5107097;28;20165;-66
2022/01/15 05:41:01;;;;;;;2.50;1.50;;;;;;;11.30;31.09;96347.13;5106859;28;20095;-65
2022/01/15 05:43:27;;;;;;;3.07;1.20;;;;;;;11.36;31.08;96345.38;5108943;28;20126;-68
2022/01/15 05:45:52;;;;;;;3.03;1.30;;;;;;;11.34;30.52;96350.91;5109211;28;20071;-66
2022/01/15 05:48:18;;;;;;;1.97;1.40;;;;;;;11.26;30.61;96363.78;5109176;28;20122;-71
2022/01/15 05:50:44;;;;;;;1.50;1.40;;;;;;;11.38;30.94;96381.25;5091495;28;20075;-73
2022/01/15 05:53:10;;;;;;;4.17;1.40;;;;;;;11.33;30.64;96367.09;5058827;28;20048;-72
2022/01/15 05:55:36;;;;;;;2.87;1.50;;;;;;;11.34;30.92;96376.66;5076402;28;20090;-75
2022/01/15 05:58:02;;;;;;;2.10;1.43;;;;;;;11.40;30.34;96381.81;5075680;28;20039;-72
2022/01/15 06:00:28;;;;;;;2.43;1.30;;;;;;;11.37;30.68;96386.81;5074040;28;20132;-70
2022/01/15 06:02:53;;;;;;;1.83;1.50;;;;;;;11.46;30.99;96382.69;5083036;28;20082;-70
2022/01/15 06:05:19;;;;;;;2.73;1.43;;;;;;;11.40;30.95;96384.50;5108254;28;20392;-69
2022/01/15 06:07:45;;;;;;;2.03;1.53;;;;;;;11.46;30.37;96380.84;5074073;28;20080;-70
2022/01/15 06:10:11;;;;;;;2.70;1.30;;;;;;;11.62;30.54;96400.50;5055508;28;20043;-70
2022/01/15 06:12:42;;;;;;;1.63;1.53;;;;;;;11.35;29.93;96399.53;5074529;28;20092;-70
2022/01/15 06:15:12;;;;;;;;;;;;;;;12.36;29.36;96401.81;5108186;28;20048;-70
2022/01/15 06:17:38;;;;;;;2.23;1.47;;;;;;;11.12;30.03;96322.66;5072769;28;19920;-71
2022/01/15 06:20:05;;;;;;;6.20;2.80;;;;;;;11.86;30.32;96412.56;5058001;28;20498;-71
2022/01/15 06:22:30;;;;;;;7.83;1.70;;;;;;;11.67;31.53;96405.91;5074064;28;20686;-71
2022/01/15 06:24:57;;;;;;;2.30;1.63;;;;;;;11.70;30.08;96429.38;5049859;28;20040;-72
2022/01/15 06:27:22;;;;;;;1.87;1.37;;;;;;;11.59;30.02;96432.88;5109649;28;20039;-71
2022/01/15 06:29:48;;;;;;;3.57;1.60;;;;;;;11.60;30.08;96422.00;5059410;28;20039;-72
2022/01/15 06:32:14;;;;;;;2.10;1.50;;;;;;;11.56;30.45;96420.84;5078845;28;20046;-70
2022/01/15 06:34:40;;;;;;;1.30;1.20;;;;;;;11.55;30.95;96410.47;5078627;28;20062;-71
2022/01/15 06:37:06;;;;;;;3.47;1.60;;;;;;;11.56;30.47;96433.38;5079268;28;20039;-71
2022/01/15 06:39:34;;;;;;;1.60;1.50;;;;;;;11.85;30.80;96426.94;5113075;28;20062;-71
2022/01/15 06:42:00;;;;;;;2.83;1.37;;;;;;;11.99;31.41;96446.81;5096057;28;20077;-70
2022/01/15 06:44:27;;;;;;;1.60;1.30;;;;;;;11.96;30.88;96449.16;5096047;28;20410;-70
2022/01/15 06:46:54;;;;;;;2.50;1.70;;;;;;;12.01;30.24;96442.03;5078837;28;20039;-70
2022/01/15 06:49:21;;;;;;;1.97;1.47;;;;;;;11.89;30.50;96467.94;5078952;28;20152;-70
2022/01/15 06:51:47;;;;;;;2.07;1.30;;;;;;;11.90;30.58;96459.69;5077996;28;20054;-75
2022/01/15 06:54:13;;;;;;;2.60;1.43;;;;;;;11.59;30.51;96428.34;5057525;28;20330;-75
2022/01/15 06:56:39;;;;;;;2.33;1.37;;;;;;;11.82;30.40;96470.75;5060466;28;20036;-74
2022/01/15 06:59:05;;;;;;;1.93;1.40;;;;;;;11.79;30.76;96465.91;5059529;28;20510;-74
2022/01/15 07:01:31;;;;;;;1.53;1.43;;;;;;;11.87;30.62;96483.31;5082351;28;20055;-73
2022/01/15 07:03:57;;;;;;;3.37;1.50;;;;;;;12.04;30.35;96494.75;5075492;28;20078;-72
2022/01/15 07:06:23;;;;;;;2.17;1.80;;;;;;;12.03;30.34;96485.16;5057663;28;20044;-72
2022/01/15 07:08:49;;;;;;;1.70;1.50;;;;;;;12.15;31.50;96493.84;5040809;28;20048;-72
2022/01/15 07:11:14;;;;;;;3.10;1.53;;;;;;;12.01;30.15;96497.88;5073720;28;20419;-72
2022/01/15 07:13:40;;;;;;;3.10;1.40;;;;;;;12.22;30.25;96499.00;5057013;28;20135;-74
2022/01/15 07:16:06;;;;;;;4.07;1.40;;;;;;;12.19;29.90;96507.47;5042047;28;20044;-74
2022/01/15 07:18:33;;;;;;;1.67;1.40;;;;;;;12.18;29.72;96511.19;5057900;28;20040;-72
2022/01/15 07:20:58;;;;;;;2.87;1.50;;;;;;;12.24;29.69;96504.91;5057355;28;20040;-71
2022/01/15 07:23:24;;;;;;;1.53;1.20;;;;;;;12.15;29.96;96519.66;5074374;28;20039;-74
2022/01/15 07:25:50;;;;;;;2.00;1.53;;;;;;;12.08;29.81;96514.50;5073913;28;20093;-71
2022/01/15 07:28:18;;;;;;;9.03;1.53;;;;;;;12.00;29.57;96524.72;5056778;28;20043;-72
2022/01/15 07:30:45;;;;;;;2.43;1.57;;;;;;;12.18;29.76;96511.97;5057753;28;20461;-73
2022/01/15 07:33:12;;;;;;;2.23;1.73;;;;;;;12.43;29.54;96512.34;5057139;28;20071;-69
2022/01/15 07:35:38;;;;;;;1.77;1.20;;;;;;;12.46;29.74;96535.00;5091786;28;20105;-75
2022/01/15 07:38:04;;;;;;;3.17;1.50;;;;;;;12.23;30.34;96525.38;5074499;28;20097;-73
2022/01/15 07:40:30;;;;;;;5.10;1.30;;;;;;;12.17;29.36;96534.31;5056599;28;20035;-71
2022/01/15 07:42:55;;;;;;;1.97;1.60;;;;;;;12.34;29.67;96547.59;5073368;28;20055;-71
2022/01/15 07:45:21;;;;;;;1.43;1.30;;;;;;;12.38;30.12;96538.88;5073058;28;20567;-73
2022/01/15 07:47:47;;;;;;;2.30;1.40;;;;;;;12.43;28.99;96548.78;5072826;28;20044;-71
2022/01/15 07:50:17;;;;;;;1.10;1.00;;;;;;;12.69;28.90;96556.09;5040028;28;20040;-70
2022/01/15 07:52:43;;;;;;;3.90;1.63;;;;;;;12.39;29.61;96572.44;5088809;28;20093;-70
2022/01/15 07:55:09;;;;;;;3.23;1.10;;;;;;;12.33;29.72;96560.09;5086661;28;20146;-70
2022/01/15 07:57:35;;;;;;;1.03;1.03;;;;;;;12.21;29.19;96570.00;5107512;28;20040;-68
2022/01/15 08:00:02;;;;;;;3.07;1.40;;;;;;;12.14;29.80;96536.66;5055796;28;20522;-70
2022/01/15 08:02:38;;;;;;;2.23;1.13;;;;;;;12.27;29.79;96571.72;5077081;28;20073;-72
2022/01/15 08:05:05;;;;;;;3.83;1.20;;;;;;;12.51;29.36;96582.97;5055329;28;20039;-68
2022/01/15 08:07:31;;;;;;;2.53;1.30;;;;;;;12.49;30.10;96585.06;5114205;28;20035;-69
2022/01/15 08:09:56;;;;;;;3.00;1.40;;;;;;;12.22;30.87;96590.28;5074908;28;20039;-69
2022/01/15 08:12:22;;;;;;;1.20;1.10;;;;;;;12.41;29.82;96601.47;5075511;28;20031;-69
2022/01/15 08:14:51;;;;;;;3.37;1.33;;;;;;;12.43;30.06;96589.53;5108900;28;20629;-69
2022/01/15 08:17:17;;;;;;;1.80;1.20;;;;;;;12.45;29.92;96606.06;5109766;28;20498;-68
2022/01/15 08:19:43;;;;;;;2.10;1.60;;;;;;;12.46;29.83;96614.84;5073088;28;20092;-68
2022/01/15 08:22:10;;;;;;;4.93;1.50;;;;;;;12.45;29.85;96614.06;5092763;28;20410;-68
2022/01/15 08:24:36;;;;;;;2.40;1.40;;;;;;;12.61;30.18;96612.44;5110473;28;20096;-68
2022/01/15 08:27:02;;;;;;;2.10;1.40;;;;;;;12.48;30.11;96578.16;5075313;28;20432;-68
2022/01/15 08:29:28;;;;;;;2.30;1.57;;;;;;;12.49;30.57;96601.84;5109861;28;20126;-69
2022/01/15 08:31:56;;;;;;;2.87;1.47;;;;;;;12.52;30.48;96603.22;5092993;28;20039;-67
2022/01/15 08:34:22;;;;;;;1.70;1.60;;;;;;;12.76;29.62;96637.38;5076117;28;20039;-69
2022/01/15 08:36:48;;;;;;;1.63;1.30;;;;;;;12.62;29.56;96627.34;5092861;28;20522;-68
2022/01/15 08:39:13;;;;;;;3.33;1.20;;;;;;;12.62;30.06;96643.31;5092734;28;20048;-69
2022/01/15 08:41:40;;;;;;;1.60;1.50;;;;;;;12.56;30.84;96631.75;5075837;28;20411;-68
2022/01/15 08:44:06;;;;;;;2.80;1.40;;;;;;;12.57;30.37;96585.47;5092926;28;20058;-69
2022/01/15 08:46:33;;;;;;;1.90;1.37;;;;;;;12.91;30.58;96639.47;5104744;28;20426;-68
2022/01/15 08:48:58;;;;;;;4.77;1.30;;;;;;;12.50;29.46;96648.72;5075035;28;20035;-68
2022/01/15 08:51:24;;;;;;;1.83;1.40;;;;;;;12.56;30.66;96647.75;5074282;28;20521;-68
2022/01/15 08:53:50;;;;;;;1.60;1.40;;;;;;;12.48;29.63;96663.31;5109448;28;20049;-68
2022/01/15 08:56:17;;;;;;;2.73;1.30;;;;;;;12.20;28.46;96647.41;5058297;28;20158;-68
2022/01/15 08:58:42;;;;;;;3.10;1.60;;;;;;;12.32;28.83;96656.13;5075338;28;20046;-68
2022/01/15 09:01:13;;;;;;;3.50;1.30;;;;;;;12.16;29.34;96596.56;5074553;28;20035;-69
2022/01/15 09:03:40;;;;;;;2.15;1.23;;;;;;;12.76;28.40;96674.66;5110854;28;20119;-69
2022/01/15 09:06:06;;;;;;;1.80;1.50;;;;;;;12.47;28.91;96657.19;5108510;28;20048;-68
2022/01/15 09:08:32;;;;;;;1.30;1.10;;;;;;;12.59;28.86;96689.06;5057816;28;20096;-69
2022/01/15 09:10:57;;;;;;;1.60;1.30;;;;;;;12.40;27.86;96677.84;5091003;28;20154;-69
2022/01/15 09:13:23;;;;;;;2.33;1.43;;;;;;;12.47;27.95;96689.13;5091249;28;20039;-69
2022/01/15 09:15:52;;;;;;;1.57;1.40;;;;;;;12.53;28.14;96684.69;5074343;28;20042;-68
2022/01/15 09:18:19;;;;;;;3.67;1.50;;;;;;;12.79;27.62;96694.69;5074952;28;20039;-69
2022/01/15 09:20:46;;;;;;;2.47;1.37;;;;;;;12.63;27.69;96677.69;5091442;28;20042;-68
2022/01/15 09:23:12;;;;;;;3.20;1.50;;;;;;;12.66;28.50;96703.00;5074597;28;20036;-68
2022/01/15 09:25:38;;;;;;;2.33;1.30;;;;;;;12.54;27.15;96697.78;5074580;28;20042;-69
2022/01/15 09:30:48;;;;;;;2.10;1.30;;;;;;;12.62;27.88;96721.34;5094240;28;20047;-68
2022/01/15 09:33:15;;;;;;;2.70;1.50;;;;;;;12.80;27.56;96713.09;5090646;28;20074;-69
2022/01/15 09:35:41;;;;;;;4.27;1.67;;;;;;;12.60;28.34;96715.44;5108275;28;20043;-69
2022/01/15 09:38:08;;;;;;;3.63;1.40;;;;;;;12.83;27.62;96717.94;5056271;28;20532;-69
2022/01/15 09:40:34;;;;;;;2.23;1.50;;;;;;;12.81;27.81;96693.41;5090569;28;20047;-72
2022/01/15 09:43:01;;;;;;;2.43;1.47;;;;;;;12.96;27.42;96733.56;5090688;28;20039;-69
2022/01/15 09:45:27;;;;;;;1.93;1.50;;;;;;;12.72;28.64;96721.47;5091876;28;20082;-70
2022/01/15 09:47:55;;;;;;;3.17;1.40;;;;;;;13.17;29.31;96753.38;5108682;28;20059;-70
2022/01/15 09:50:22;;;;;;;3.47;1.53;;;;;;;13.14;29.60;96733.38;5108748;28;20133;-68
2022/01/15 09:52:49;;;;;;;3.63;1.67;;;;;;;13.07;30.60;96740.69;5091199;28;20558;-71
2022/01/15 09:55:17;;;;;;;2.80;1.33;;;;;;;12.88;29.01;96736.66;5108874;28;20032;-72
2022/01/15 09:57:42;;;;;;;4.30;1.30;;;;;;;12.72;28.67;96710.84;5108394;28;20603;-72
2022/01/15 10:00:14;;;;;;;3.43;1.70;;;;;;;13.67;29.72;96748.72;5108511;28;20043;-72
2022/01/15 10:02:45;;;;;;;3.13;1.77;;;;;;;13.45;28.35;96727.38;5107849;28;20435;-73
2022/01/15 10:05:11;;;;;;;4.43;1.30;;;;;;;13.41;28.63;96768.13;5092032;28;20046;-71
2022/01/15 10:07:37;;;;;;;10.90;1.93;;;;;;;13.33;28.21;96766.66;5108661;28;20048;-71
2022/01/15 10:10:15;;;;;;;4.23;1.80;;;;;;;14.00;27.95;96779.81;5108604;28;20040;-76
2022/01/15 10:12:43;;;;;;;3.43;1.80;;;;;;;13.43;28.62;96772.16;5073697;28;20043;-72
2022/01/15 10:15:10;;;;;;;3.80;1.53;;;;;;;13.40;28.74;96762.00;5080470;28;20124;-73
2022/01/15 10:17:37;;;;;;;2.17;1.40;;;;;;;13.38;28.26;96764.09;5088956;28;20108;-73
2022/01/15 10:20:10;;;;;;;1.40;1.30;;;;;;;13.39;27.87;96744.38;5088221;28;20036;-74
2022/01/15 10:22:44;;;;;;;5.10;2.07;;;;;;;13.69;28.28;96785.81;5074098;28;20044;-73
2022/01/15 10:25:17;;;;;;;2.33;1.50;;;;;;;13.39;28.86;96757.69;5107309;28;20055;-72
2022/01/15 10:27:47;;;;;;;3.00;1.70;;;;;;;13.64;28.65;96794.56;5087439;28;20441;-71
2022/01/15 10:30:16;;;;;;;2.23;1.50;;;;;;;13.72;28.65;96796.00;5037477;28;20040;-73
2022/01/15 10:32:57;;;;;;;2.00;1.50;;;;;;;13.78;28.31;96777.16;5091170;28;20050;-73
2022/01/15 10:35:26;;;;;;;4.23;1.47;;;;;;;13.50;28.02;96806.63;5089642;28;20049;-73
2022/01/15 10:37:55;;;;;;;3.03;1.47;;;;;;;13.48;28.07;96806.88;5108410;28;20048;-71
2022/01/15 10:40:25;;;;;;;2.83;1.73;;;;;;;13.51;29.09;96811.72;5092001;28;20031;-71
2022/01/15 10:42:54;;;;;;;3.83;1.55;;;;;;;13.43;27.74;96820.16;5108070;28;20035;-71
2022/01/15 10:45:22;;;;;;;2.50;1.60;;;;;;;13.31;27.34;96819.44;5090536;28;20054;-75
2022/01/15 10:47:50;;;;;;;2.37;1.30;;;;;;;13.10;27.06;96822.81;5091225;28;20039;-72
2022/01/15 10:50:26;;;;;;;1.27;1.17;;;;;;;13.48;27.04;96825.53;5108006;28;20501;-70
2022/01/15 10:52:52;;;;;;;2.13;1.17;;;;;;;12.98;27.76;96831.88;5107568;28;20047;-72
2022/01/15 10:55:24;;;;;;;1.63;1.30;;;;;;;13.83;27.44;96835.91;5072519;28;20035;-70
2022/01/15 10:57:59;;;;;;;5.27;1.40;;;;;;;14.08;26.96;96838.09;5071173;28;20044;-70
2022/01/15 11:00:30;;;;;;;2.10;1.40;;;;;;;13.35;27.33;96803.75;5088961;28;20096;-67
2022/01/15 11:03:01;;;;;;;3.83;1.52;;;;;;;13.64;28.44;96836.44;5089115;28;20040;-64
2022/01/15 11:05:35;;;;;;;4.33;1.97;;;;;;;13.55;27.79;96823.53;5053559;28;20063;-64
2022/01/15 11:08:04;;;;;;;3.57;1.70;;;;;;;13.26;27.81;96850.50;5087980;28;20508;-66
2022/01/15 11:10:40;;;;;;;6.87;1.80;;;;;;;13.15;27.82;96865.53;5093824;28;20039;-66
2022/01/15 11:13:10;;;;;;;2.30;1.50;;;;;;;12.59;27.63;96862.09;5056898;28;20035;-65
2022/01/15 11:15:37;;;;;;;2.13;1.40;;;;;;;12.81;28.14;96873.66;5108710;28;20522;-67
2022/01/15 11:18:04;;;;;;;2.53;1.40;;;;;;;12.75;28.42;96875.44;5085007;28;20105;-65
2022/01/15 11:20:33;;;;;;;2.97;1.63;;;;;;;13.08;28.43;96880.06;5109035;28;20559;-66
2022/01/15 11:23:03;;;;;;;3.70;1.50;;;;;;;13.12;28.25;96879.34;5108966;28;20036;-69
2022/01/15 11:25:29;;;;;;;2.03;1.57;;;;;;;12.73;30.10;96879.41;5108809;28;20130;-66
2022/01/15 11:27:58;;;;;;;6.67;1.60;;;;;;;13.08;29.32;96891.53;5110023;28;20047;-64
2022/01/15 11:30:24;;;;;;;3.50;1.50;;;;;;;13.00;28.51;96905.25;5110728;28;20389;-65
2022/01/15 11:32:50;;;;;;;4.20;1.40;;;;;;;12.37;28.57;96872.59;5112402;28;20049;-66
2022/01/15 11:35:16;;;;;;;2.40;1.20;;;;;;;12.41;28.33;96887.03;5111105;28;20036;-65
2022/01/15 11:37:52;;;;;;;3.33;1.60;;;;;;;13.26;28.51;96920.63;5093796;28;20036;-66
2022/01/15 11:40:40;;;;;;;2.43;1.50;;;;;;;13.27;28.06;96930.22;5077179;28;20040;-69
2022/01/15 11:43:24;;;;;;;1.77;1.30;;;;;;;13.44;28.34;96940.91;5094057;28;20377;-66
2022/01/15 11:45:55;;;;;;;1.83;1.30;;;;;;;13.09;28.71;96957.09;5093982;28;20412;-67
2022/01/15 11:48:28;;;;;;;1.70;1.52;;;;;;;13.20;27.77;96950.91;5110829;28;20144;-66
2022/01/15 11:51:17;;;;;;;2.50;1.53;;;;;;;13.27;28.35;96951.53;5112031;28;20530;-66
2022/01/15 11:53:52;;;;;;;4.53;1.60;;;;;;;13.00;29.39;96955.03;5106608;28;20032;-67
2022/01/15 11:56:22;;;;;;;2.50;1.43;;;;;;;12.85;29.64;96960.06;5088792;28;20048;-66
2022/01/15 11:58:49;;;;;;;9.80;1.60;;;;;;;12.74;29.27;96974.22;5077562;28;20388;-68
2022/01/15 12:01:41;;;;;;;1.93;1.33;;;;;;;13.27;28.36;96970.19;5070581;28;20069;-67
2022/01/15 12:04:33;;;;;;;3.87;1.40;;;;;;;13.19;28.89;96980.44;5089585;28;20044;-73